Time;durP1;ratioP1;P1;durP2;ratioP2;P2;SDS_P1;SDS_P2;PMS_P1;PMS_P2;Temp;Humidity;BMP_temperature;BMP_pressure;BME280_temperature;BME280_humidity;BME280_pressure;Samples;Min_cycle;Max_cycle;Signal;HPM_P1;HPM_P2
2021/08/29 00:01:13;;;;;;;10.13;8.60;;;;;;;25.08;100.00;100109.16;1721972;81;21070;-68
2021/08/29 00:03:40;;;;;;;15.80;7.83;;;;;;;24.84;100.00;100103.27;1720911;81;20868;-69
2021/08/29 00:06:07;;;;;;;14.03;8.13;;;;;;;24.77;100.00;100096.13;1722109;81;21129;-68
2021/08/29 00:08:33;;;;;;;10.10;7.73;;;;;;;25.00;100.00;100099.39;1721394;80;21054;-68
2021/08/29 00:10:59;;;;;;;10.37;7.47;;;;;;;25.13;100.00;100095.81;1721336;81;21007;-68
2021/08/29 00:13:27;;;;;;;9.83;7.77;;;;;;;25.26;100.00;100102.33;1718784;80;22952;-68
2021/08/29 00:15:54;;;;;;;8.93;7.50;;;;;;;25.31;100.00;100097.75;1721822;80;21031;-68
2021/08/29 00:18:20;;;;;;;13.03;8.23;;;;;;;25.30;100.00;100101.47;1721491;81;21090;-68
2021/08/29 00:20:47;;;;;;;9.67;8.50;;;;;;;25.07;100.00;100094.24;1721397;81;21011;-68
2021/08/29 00:23:13;;;;;;;8.97;7.97;;;;;;;25.03;100.00;100094.55;1721876;81;21073;-68
2021/08/29 00:25:41;;;;;;;10.23;8.53;;;;;;;25.01;100.00;100102.84;1722186;80;21085;-68
2021/08/29 00:28:07;;;;;;;9.20;8.30;;;;;;;24.99;100.00;100096.98;1721041;80;20895;-69
2021/08/29 00:30:34;;;;;;;9.47;8.37;;;;;;;24.77;100.00;100094.80;1721304;81;21153;-68
2021/08/29 00:33:01;;;;;;;10.63;8.40;;;;;;;24.90;100.00;100092.81;1723142;81;21059;-68
2021/08/29 00:35:29;;;;;;;8.93;7.60;;;;;;;24.86;100.00;100093.67;1721298;81;21033;-69
2021/08/29 00:37:55;;;;;;;9.60;7.57;;;;;;;24.76;100.00;100092.67;1699719;82;21068;-69
2021/08/29 00:40:22;;;;;;;10.80;8.90;;;;;;;24.73;100.00;100088.44;1721511;81;22148;-68
2021/08/29 00:42:49;;;;;;;9.37;8.30;;;;;;;24.83;100.00;100081.69;1723117;82;21139;-68
2021/08/29 00:45:22;;;;;;;8.43;7.63;;;;;;;24.74;100.00;100088.72;1721483;81;21075;-68
2021/08/29 00:47:50;;;;;;;9.43;8.33;;;;;;;24.60;100.00;100087.78;1721701;81;21839;-68
2021/08/29 00:50:17;;;;;;;10.03;8.33;;;;;;;25.06;100.00;100094.78;1722793;82;21499;-67
2021/08/29 00:52:44;;;;;;;10.57;8.60;;;;;;;24.83;100.00;100096.35;1723409;82;21097;-68
2021/08/29 00:55:11;;;;;;;9.07;8.17;;;;;;;24.82;100.00;100094.77;1722304;82;21188;-68
2021/08/29 00:57:43;;;;;;;12.43;9.07;;;;;;;24.45;100.00;100098.81;1720906;80;21010;-69
2021/08/29 01:00:14;;;;;;;12.50;8.40;;;;;;;24.46;100.00;100093.73;1722610;80;21006;-68
2021/08/29 01:02:43;;;;;;;11.22;8.98;;;;;;;24.82;100.00;100093.44;1722645;82;21516;-68
2021/08/29 01:05:15;;;;;;;11.17;9.37;;;;;;;24.47;100.00;100098.02;1728417;80;21091;-70
2021/08/29 01:08:03;;;;;;;12.03;9.90;;;;;;;24.70;100.00;100095.66;1727117;80;21129;-67
2021/08/29 01:10:44;;;;;;;10.10;9.03;;;;;;;24.44;100.00;100092.45;1708730;80;21527;-68
2021/08/29 01:13:28;;;;;;;10.87;8.50;;;;;;;24.40;100.00;100092.20;1728053;80;21117;-65
2021/08/29 01:16:05;;;;;;;9.53;8.03;;;;;;;24.63;100.00;100088.02;1717322;80;21516;-65
2021/08/29 01:18:34;;;;;;;12.60;8.87;;;;;;;24.48;100.00;100091.61;1730868;80;20987;-69
2021/08/29 01:21:17;;;;;;;10.43;9.30;;;;;;;24.19;100.00;100100.84;1728598;80;21077;-69
2021/08/29 01:23:46;;;;;;;10.37;9.27;;;;;;;24.18;100.00;100090.48;1728669;80;20931;-65
2021/08/29 01:26:22;;;;;;;11.37;9.63;;;;;;;24.40;100.00;100090.09;1709368;80;21536;-68
2021/08/29 01:29:04;;;;;;;12.67;9.53;;;;;;;24.15;100.00;100092.36;1730128;80;21169;-65
2021/08/29 01:31:35;;;;;;;11.20;8.87;;;;;;;24.10;100.00;100098.52;1735406;80;21094;-65
2021/08/29 01:34:07;;;;;;;11.00;9.53;;;;;;;24.41;100.00;100094.33;1708861;80;21805;-68
2021/08/29 01:36:36;;;;;;;10.93;9.83;;;;;;;24.48;100.00;100098.80;1729138;80;21078;-66
2021/08/29 01:39:05;;;;;;;11.15;8.95;;;;;;;24.68;100.00;100104.49;1729591;80;20947;-66
2021/08/29 01:41:35;;;;;;;10.97;9.47;;;;;;;24.65;100.00;100094.39;1732768;80;21038;-65
2021/08/29 01:44:02;;;;;;;11.70;9.73;;;;;;;24.48;100.00;100102.26;1729456;80;21066;-67
2021/08/29 01:46:29;;;;;;;10.40;8.87;;;;;;;24.48;100.00;100108.13;1707548;80;22392;-66
2021/08/29 01:49:04;;;;;;;9.73;8.73;;;;;;;24.34;100.00;100104.47;1734757;80;21575;-66
2021/08/29 01:51:31;;;;;;;10.67;9.57;;;;;;;24.35;100.00;100102.85;1731011;80;21418;-67
2021/08/29 01:54:00;;;;;;;11.70;10.07;;;;;;;24.31;100.00;100112.48;1729700;80;20959;-68
2021/08/29 01:56:28;;;;;;;13.57;10.03;;;;;;;24.50;100.00;100110.75;1728592;80;21054;-68
2021/08/29 01:58:57;;;;;;;11.67;10.47;;;;;;;24.19;100.00;100101.37;1736712;80;21171;-66
2021/08/29 02:01:48;;;;;;;11.23;10.03;;;;;;;24.57;100.00;100093.12;1729951;80;21006;-68
2021/08/29 02:04:14;;;;;;;13.30;10.40;;;;;;;24.41;100.00;100097.78;1764449;80;20981;-67
2021/08/29 02:06:58;;;;;;;12.20;10.80;;;;;;;24.76;100.00;100091.34;1727495;82;21512;-67
2021/08/29 02:09:26;;;;;;;13.13;10.23;;;;;;;24.67;100.00;100092.25;1692704;82;21847;-66
2021/08/29 02:11:54;;;;;;;11.83;10.50;;;;;;;24.83;100.00;100093.69;1727331;82;21144;-66
2021/08/29 02:14:37;;;;;;;12.50;9.87;;;;;;;24.90;100.00;100094.16;1708619;83;20971;-67
2021/08/29 02:17:04;;;;;;;11.87;10.33;;;;;;;24.79;100.00;100099.87;1682247;83;20940;-67
2021/08/29 02:19:33;;;;;;;17.90;11.30;;;;;;;24.71;100.00;100099.94;1715927;83;22394;-65
2021/08/29 02:22:03;;;;;;;13.53;11.47;;;;;;;24.68;100.00;100099.16;1705466;82;21008;-67
2021/08/29 02:24:30;;;;;;;14.37;10.30;;;;;;;24.71;100.00;100094.61;1727126;81;22513;-67
2021/08/29 02:26:58;;;;;;;14.27;11.17;;;;;;;24.80;100.00;100101.45;1693944;82;20998;-67
2021/08/29 02:29:26;;;;;;;13.67;11.83;;;;;;;24.56;100.00;100098.73;1721594;83;21604;-67
2021/08/29 02:31:53;;;;;;;15.77;11.17;;;;;;;24.55;100.00;100104.61;1721599;83;21022;-67
2021/08/29 02:34:20;;;;;;;12.93;11.50;;;;;;;24.62;100.00;100110.39;1721515;83;20996;-67
2021/08/29 02:36:51;;;;;;;12.40;10.90;;;;;;;24.65;100.00;100115.70;1700081;83;21398;-68
2021/08/29 02:39:19;;;;;;;12.90;10.88;;;;;;;24.79;100.00;100112.66;1719643;83;21022;-66
2021/08/29 02:41:46;;;;;;;14.43;11.30;;;;;;;24.81;100.00;100118.48;1721403;81;21078;-66
2021/08/29 02:44:13;;;;;;;12.27;10.63;;;;;;;24.86;100.00;100121.66;1721458;83;21508;-66
2021/08/29 02:46:39;;;;;;;12.27;10.97;;;;;;;24.85;100.00;100121.39;1720800;83;21007;-66
2021/08/29 02:49:06;;;;;;;15.70;11.73;;;;;;;24.73;100.00;100127.09;1691352;83;21125;-66
2021/08/29 02:51:33;;;;;;;14.93;11.93;;;;;;;24.94;100.00;100129.84;1721329;81;21970;-66
2021/08/29 02:54:02;;;;;;;11.93;10.73;;;;;;;24.69;100.00;100126.06;1718577;81;21490;-67
2021/08/29 02:56:30;;;;;;;15.90;12.03;;;;;;;24.71;100.00;100135.38;1689327;83;21022;-66
2021/08/29 02:58:58;;;;;;;13.07;11.23;;;;;;;24.83;100.00;100133.67;1718112;83;21097;-68
2021/08/29 03:01:27;;;;;;;11.50;10.20;;;;;;;24.74;100.00;100137.50;1722204;80;21552;-66
2021/08/29 03:04:01;;;;;;;14.87;10.83;;;;;;;24.80;100.00;100140.89;1697255;84;20946;-66
2021/08/29 03:06:29;;;;;;;12.03;10.73;;;;;;;24.86;100.00;100141.66;1701818;83;21400;-67
2021/08/29 03:08:59;;;;;;;13.00;11.60;;;;;;;24.87;100.00;100131.25;1701561;84;21047;-67
2021/08/29 03:11:26;;;;;;;12.83;10.73;;;;;;;24.93;100.00;100138.92;1701839;84;21115;-66
2021/08/29 03:13:52;;;;;;;14.50;11.13;;;;;;;25.00;100.00;100147.39;1681074;84;22080;-67
2021/08/29 03:16:20;;;;;;;11.57;10.33;;;;;;;25.00;100.00;100150.06;1700664;84;21092;-68
2021/08/29 03:18:51;;;;;;;12.43;10.37;;;;;;;25.11;100.00;100149.43;1701209;84;21524;-68
2021/08/29 03:21:37;;;;;;;12.80;11.20;;;;;;;25.19;100.00;100153.35;1699972;83;20992;-67
2021/08/29 03:24:06;;;;;;;17.83;11.87;;;;;;;25.10;100.00;100154.52;1701634;84;20913;-68
2021/08/29 03:26:34;;;;;;;13.00;11.60;;;;;;;25.27;100.00;100150.09;1700855;84;21156;-68
2021/08/29 03:29:02;;;;;;;13.20;10.37;;;;;;;25.61;100.00;100148.63;1699941;83;21024;-66
2021/08/29 03:31:31;;;;;;;12.90;9.77;;;;;;;26.14;100.00;100142.37;1702275;82;20987;-66
2021/08/29 03:33:57;;;;;;;13.80;11.13;;;;;;;26.72;100.00;100133.20;1701749;84;21499;-67
2021/08/29 03:36:24;;;;;;;13.70;10.90;;;;;;;27.27;100.00;100139.43;1698718;82;21023;-68
2021/08/29 03:38:52;;;;;;;12.60;11.30;;;;;;;27.55;100.00;100138.11;1659387;84;21163;-67
2021/08/29 03:41:18;;;;;;;11.90;10.70;;;;;;;28.32;100.00;100139.92;1702037;84;21027;-65
2021/08/29 03:43:46;;;;;;;12.07;10.87;;;;;;;28.90;93.01;100149.77;1701982;84;21553;-66
2021/08/29 03:46:15;;;;;;;12.33;10.97;;;;;;;28.95;88.36;100153.67;1701498;83;20933;-67
2021/08/29 03:48:44;;;;;;;13.70;11.50;;;;;;;29.06;80.94;100151.55;1701785;83;20956;-69
2021/08/29 03:51:15;;;;;;;13.27;11.37;;;;;;;28.77;83.06;100152.00;1700859;84;21121;-66
2021/08/29 03:53:42;;;;;;;12.70;10.83;;;;;;;28.58;86.15;100155.66;1702020;84;21059;-66
2021/08/29 03:56:10;;;;;;;14.43;11.33;;;;;;;28.80;85.71;100160.22;1701244;82;21005;-66
2021/08/29 03:58:59;;;;;;;13.17;10.67;;;;;;;29.00;83.67;100148.75;1704482;83;21495;-67
2021/08/29 04:01:28;;;;;;;13.67;11.57;;;;;;;29.13;82.83;100154.55;1712020;83;21024;-67
2021/08/29 04:03:55;;;;;;;14.33;11.37;;;;;;;29.49;79.04;100153.59;1730366;82;21104;-66
2021/08/29 04:06:28;;;;;;;14.03;11.50;;;;;;;29.77;76.97;100147.42;1779095;80;20872;-66
2021/08/29 04:08:56;;;;;;;13.13;11.17;;;;;;;30.04;69.76;100152.53;1782417;79;21041;-67
2021/08/29 04:11:27;;;;;;;13.40;11.83;;;;;;;29.86;67.95;100145.55;1782406;80;20996;-68
2021/08/29 04:13:56;;;;;;;14.40;11.30;;;;;;;29.54;69.11;100148.06;1781795;80;22030;-66
2021/08/29 04:16:31;;;;;;;14.60;11.50;;;;;;;28.86;75.78;100140.20;1781361;79;21119;-66
2021/08/29 04:19:00;;;;;;;13.63;11.50;;;;;;;28.24;84.89;100149.48;1749618;80;20998;-65
2021/08/29 04:21:28;;;;;;;14.27;11.00;;;;;;;27.98;90.69;100152.48;1779569;79;21580;-66
2021/08/29 04:23:56;;;;;;;12.93;10.93;;;;;;;27.71;94.65;100151.97;1782609;80;21106;-66
2021/08/29 04:26:25;;;;;;;11.57;10.40;;;;;;;27.32;100.00;100151.95;1777671;78;21413;-68
2021/08/29 04:28:52;;;;;;;11.97;10.77;;;;;;;27.20;100.00;100152.95;1791083;79;21165;-66
2021/08/29 04:31:26;;;;;;;13.77;11.63;;;;;;;27.71;100.00;100145.27;1796166;79;21010;-67
2021/08/29 04:33:59;;;;;;;13.43;10.87;;;;;;;28.57;98.67;100147.94;1790099;79;20971;-68
2021/08/29 04:36:29;;;;;;;13.72;12.05;;;;;;;29.51;86.99;100149.50;1787745;79;20964;-68
2021/08/29 04:39:01;;;;;;;14.63;11.00;;;;;;;30.47;76.39;100146.36;1765650;79;21083;-69
2021/08/29 04:41:27;;;;;;;11.83;10.20;;;;;;;31.42;69.79;100143.94;1766950;79;21108;-68
2021/08/29 04:43:56;;;;;;;11.78;10.48;;;;;;;32.55;57.38;100136.36;1746181;81;21007;-66
2021/08/29 04:46:22;;;;;;;11.12;10.03;;;;;;;33.16;50.58;100140.52;1763127;79;20972;-67
2021/08/29 04:48:49;;;;;;;10.93;9.83;;;;;;;33.96;47.48;100143.12;1791627;79;21114;-67
2021/08/29 04:51:16;;;;;;;10.95;9.55;;;;;;;34.44;44.85;100141.38;1747452;81;20961;-70
2021/08/29 04:53:44;;;;;;;12.75;11.45;;;;;;;34.65;43.76;100140.38;1738073;81;21158;-70
2021/08/29 04:56:11;;;;;;;12.58;10.80;;;;;;;34.96;41.50;100143.65;1791080;79;20932;-69
2021/08/29 04:58:39;;;;;;;13.95;10.03;;;;;;;35.19;40.16;100139.77;1755260;79;20920;-68
2021/08/29 05:01:06;;;;;;;11.25;9.75;;;;;;;35.33;39.75;100137.39;1782486;79;22074;-68
2021/08/29 05:03:36;;;;;;;11.00;8.95;;;;;;;35.45;39.51;100141.33;1778125;79;21134;-67
2021/08/29 05:06:04;;;;;;;10.58;8.30;;;;;;;35.43;39.59;100138.20;1775644;79;21142;-67
2021/08/29 05:08:31;;;;;;;9.83;8.13;;;;;;;35.85;38.59;100140.28;1775797;79;21087;-68
2021/08/29 05:10:59;;;;;;;10.70;8.50;;;;;;;36.04;37.74;100130.81;1736488;81;21023;-69
2021/08/29 05:13:27;;;;;;;10.85;8.58;;;;;;;36.03;36.81;100134.67;1739939;81;20901;-67
2021/08/29 05:15:56;;;;;;;11.38;8.35;;;;;;;35.91;36.58;100129.34;1707733;82;21070;-68
2021/08/29 05:18:23;;;;;;;9.60;8.05;;;;;;;35.67;37.10;100135.05;1777549;79;21163;-69
2021/08/29 05:20:54;;;;;;;9.55;8.55;;;;;;;35.82;36.52;100130.92;1773523;79;22348;-65
2021/08/29 05:23:39;;;;;;;11.05;8.60;;;;;;;35.84;36.37;100129.23;1740821;81;21123;-66
2021/08/29 05:26:08;;;;;;;11.57;7.85;;;;;;;35.91;36.98;100126.62;1739060;81;21099;-67
2021/08/29 05:28:34;;;;;;;12.00;8.88;;;;;;;35.97;37.21;100125.79;1780679;79;20995;-65
2021/08/29 05:31:01;;;;;;;12.98;8.45;;;;;;;36.06;37.09;100127.16;1780965;79;22096;-68
2021/08/29 05:33:28;;;;;;;9.60;7.47;;;;;;;35.98;36.84;100129.52;1776839;79;21137;-66
2021/08/29 05:35:55;;;;;;;8.80;7.42;;;;;;;35.66;36.77;100130.20;1741339;81;21004;-64
2021/08/29 05:38:22;;;;;;;9.50;7.97;;;;;;;35.21;36.44;100134.22;1743499;81;21048;-67
2021/08/29 05:40:54;;;;;;;9.08;7.40;;;;;;;34.80;36.74;100134.17;1776757;79;20944;-68
2021/08/29 05:43:39;;;;;;;10.25;7.53;;;;;;;34.50;37.05;100136.51;1739964;81;21163;-65
2021/08/29 05:46:07;;;;;;;12.07;8.60;;;;;;;34.51;36.56;100136.17;1776831;79;21714;-66
2021/08/29 05:48:34;;;;;;;16.50;9.63;;;;;;;34.07;37.26;100134.77;1776624;79;21040;-65
2021/08/29 05:51:01;;;;;;;11.10;7.80;;;;;;;34.27;38.05;100137.61;1777323;80;20978;-64
2021/08/29 05:53:28;;;;;;;16.07;8.23;;;;;;;34.62;37.57;100137.78;1780539;80;20999;-64
2021/08/29 05:55:56;;;;;;;11.00;7.83;;;;;;;35.19;36.90;100130.28;1764312;80;21148;-66
2021/08/29 05:58:23;;;;;;;11.65;7.58;;;;;;;35.23;36.30;100131.96;1777396;80;21070;-66
2021/08/29 06:00:50;;;;;;;10.80;8.58;;;;;;;35.03;36.10;100129.73;1773623;80;20991;-67
2021/08/29 06:03:16;;;;;;;11.45;7.33;;;;;;;34.85;36.34;100134.72;1743728;82;20973;-64
2021/08/29 06:05:43;;;;;;;10.05;7.33;;;;;;;34.82;36.45;100133.27;1735160;82;21470;-64
2021/08/29 06:08:17;;;;;;;7.90;7.05;;;;;;;34.57;36.85;100130.71;1781646;80;21091;-65
2021/08/29 06:10:45;;;;;;;9.05;8.15;;;;;;;34.65;36.77;100130.89;1774755;80;21001;-64
2021/08/29 06:13:12;;;;;;;10.68;7.17;;;;;;;34.72;36.94;100136.49;1782762;80;20980;-64
2021/08/29 06:15:39;;;;;;;7.28;6.40;;;;;;;34.64;36.63;100132.03;1780797;80;21068;-64
2021/08/29 06:18:08;;;;;;;7.83;6.00;;;;;;;34.67;36.75;100131.34;1777674;80;21510;-66
2021/08/29 06:20:35;;;;;;;8.95;6.03;;;;;;;34.99;36.22;100126.16;1780273;80;21121;-64
2021/08/29 06:23:02;;;;;;;8.53;6.72;;;;;;;35.47;35.20;100117.38;1774064;79;21003;-66
2021/08/29 06:25:32;;;;;;;8.67;7.77;;;;;;;35.85;34.72;100116.45;1685409;81;21556;-65
2021/08/29 06:28:17;;;;;;;9.80;5.80;;;;;;;36.16;33.67;100118.23;1739245;81;21544;-65
2021/08/29 06:31:00;;;;;;;10.28;7.08;;;;;;;36.69;33.03;100117.06;1734942;81;21122;-64
2021/08/29 06:33:45;;;;;;;8.70;6.17;;;;;;;36.91;32.47;100114.13;1735984;82;21206;-64
2021/08/29 06:36:13;;;;;;;11.80;6.60;;;;;;;36.95;32.04;100118.48;1771002;80;20921;-66
2021/08/29 06:38:40;;;;;;;9.73;6.42;;;;;;;37.24;32.01;100117.53;1771189;80;21010;-64
2021/08/29 06:41:07;;;;;;;13.70;5.90;;;;;;;37.49;31.04;100117.91;1771826;80;21078;-64
2021/08/29 06:43:34;;;;;;;8.43;6.30;;;;;;;37.49;30.31;100115.19;1769813;80;21026;-66
2021/08/29 06:46:15;;;;;;;11.85;6.83;;;;;;;37.69;30.05;100111.16;1765230;80;21471;-64
2021/08/29 06:48:49;;;;;;;8.00;6.95;;;;;;;37.79;30.36;100111.10;1729361;80;20967;-65
2021/08/29 06:51:35;;;;;;;7.50;5.37;;;;;;;37.54;30.88;100113.50;1767766;80;21070;-67
2021/08/29 06:54:04;;;;;;;12.13;5.97;;;;;;;38.14;29.76;100112.09;1771543;80;21130;-65
2021/08/29 06:56:49;;;;;;;7.33;5.67;;;;;;;38.61;28.77;100109.84;1770713;80;21006;-67
2021/08/29 06:59:23;;;;;;;10.30;6.15;;;;;;;38.63;29.37;100104.20;1768241;80;21126;-66
2021/08/29 07:01:50;;;;;;;9.78;5.55;;;;;;;38.45;28.96;100095.09;1767633;80;21693;-66
2021/08/29 07:04:16;;;;;;;7.15;5.45;;;;;;;38.21;28.58;100092.33;1769346;80;20959;-65
2021/08/29 07:06:44;;;;;;;9.60;5.25;;;;;;;38.15;28.84;100091.09;1771573;80;21099;-66
2021/08/29 07:09:30;;;;;;;9.18;5.35;;;;;;;38.12;28.83;100089.14;1770733;80;21624;-65
2021/08/29 07:11:57;;;;;;;7.87;4.85;;;;;;;38.21;28.67;100088.25;1771206;80;21133;-66
2021/08/29 07:14:28;;;;;;;7.03;4.65;;;;;;;38.34;27.00;100084.69;1760596;80;21006;-67
2021/08/29 07:16:55;;;;;;;9.35;4.28;;;;;;;38.43;26.35;100086.53;1747713;80;21086;-66
2021/08/29 07:19:22;;;;;;;7.70;4.30;;;;;;;38.66;25.94;100082.25;1768971;80;21047;-65
2021/08/29 07:22:06;;;;;;;6.05;3.92;;;;;;;39.16;24.73;100078.51;1769789;80;21063;-65
2021/08/29 07:24:52;;;;;;;6.58;3.98;;;;;;;39.46;23.99;100075.56;1770459;80;21573;-63
2021/08/29 07:27:36;;;;;;;8.75;4.20;;;;;;;39.71;23.62;100074.33;1767611;80;20980;-65
2021/08/29 07:30:06;;;;;;;7.37;3.67;;;;;;;39.78;23.41;100074.36;1708036;80;20964;-67
2021/08/29 07:32:43;;;;;;;7.97;4.03;;;;;;;39.66;23.11;100071.34;1767686;79;21074;-64
2021/08/29 07:35:10;;;;;;;5.70;3.90;;;;;;;39.53;22.69;100073.45;1769550;79;21585;-65
2021/08/29 07:37:55;;;;;;;7.17;4.08;;;;;;;39.38;22.21;100074.76;1770011;80;21195;-65
2021/08/29 07:40:23;;;;;;;6.33;3.77;;;;;;;39.15;22.40;100062.73;1771223;80;21063;-62
2021/08/29 07:42:49;;;;;;;7.83;3.60;;;;;;;39.04;22.62;100069.30;1769580;80;21018;-65
2021/08/29 07:45:16;;;;;;;8.33;3.42;;;;;;;39.11;22.69;100061.16;1769623;80;21037;-64
2021/08/29 07:47:43;;;;;;;4.53;3.40;;;;;;;39.22;22.28;100059.86;1768453;80;21051;-66
2021/08/29 07:50:10;;;;;;;9.33;3.42;;;;;;;39.17;21.70;100065.07;1771523;79;21131;-66
2021/08/29 07:52:37;;;;;;;7.28;3.62;;;;;;;39.45;21.39;100058.23;1770454;80;21041;-64
2021/08/29 07:55:21;;;;;;;5.17;2.52;;;;;;;39.35;21.42;100054.28;1765829;80;20979;-64
2021/08/29 07:57:52;;;;;;;8.00;3.90;;;;;;;39.07;20.73;100049.45;1760955;79;21013;-66
2021/08/29 08:00:20;;;;;;;5.80;3.75;;;;;;;39.19;21.27;100045.03;1769719;80;21088;-64
2021/08/29 08:02:49;;;;;;;10.15;4.08;;;;;;;38.79;21.61;100050.02;1767993;80;21135;-65
2021/08/29 08:05:34;;;;;;;6.75;3.70;;;;;;;38.81;21.67;100045.80;1767098;80;20971;-66
2021/08/29 08:08:15;;;;;;;7.50;3.42;;;;;;;39.02;22.03;100048.44;1716328;80;21611;-65
2021/08/29 08:11:00;;;;;;;7.50;3.85;;;;;;;38.99;21.86;100047.86;1765440;80;21125;-65
2021/08/29 08:13:30;;;;;;;7.30;3.70;;;;;;;39.33;21.47;100042.41;1771166;80;21701;-62
2021/08/29 08:15:57;;;;;;;7.12;3.37;;;;;;;39.38;20.39;100058.39;1770364;80;21121;-63
2021/08/29 08:18:25;;;;;;;9.10;4.65;;;;;;;39.23;19.67;100041.74;1771326;80;21108;-66
2021/08/29 08:20:53;;;;;;;11.30;3.40;;;;;;;38.80;20.03;100052.42;1771769;80;21033;-64
2021/08/29 08:23:26;;;;;;;15.00;3.83;;;;;;;38.55;19.91;100054.92;1763948;80;21583;-63
2021/08/29 08:25:54;;;;;;;11.35;3.62;;;;;;;38.36;19.95;100048.34;1718555;80;20924;-65
2021/08/29 08:28:39;;;;;;;4.83;3.10;;;;;;;38.07;20.14;100045.91;1770100;80;21099;-65
2021/08/29 08:31:10;;;;;;;10.32;4.40;;;;;;;37.96;21.06;100033.56;1765178;80;21488;-63
2021/08/29 08:33:39;;;;;;;10.05;4.30;;;;;;;38.01;21.21;100037.91;1757520;80;21037;-63
2021/08/29 08:36:19;;;;;;;;;;;;;;;38.28;21.12;100036.59;1773513;80;20984;-66
2021/08/29 08:39:00;;;;;;;10.55;4.08;;;;;;;38.37;20.65;100042.52;1710840;80;20171;-64
2021/08/29 08:41:31;;;;;;;6.65;3.58;;;;;;;38.21;20.52;100032.44;1768821;79;21133;-63
2021/08/29 08:44:16;;;;;;;10.35;3.70;;;;;;;37.92;21.04;100040.91;1770640;80;21038;-64
2021/08/29 08:47:05;;;;;;;7.47;3.52;;;;;;;37.97;21.30;100014.73;1768798;80;20993;-63
2021/08/29 08:49:39;;;;;;;6.70;3.37;;;;;;;38.24;20.76;100021.39;1744799;80;21455;-66
2021/08/29 08:52:27;;;;;;;6.08;3.62;;;;;;;38.22;20.65;100015.72;1770645;80;20984;-64
2021/08/29 08:55:12;;;;;;;9.63;3.90;;;;;;;38.79;20.46;100014.05;1768532;80;21126;-65
2021/08/29 08:57:59;;;;;;;7.35;4.00;;;;;;;38.56;20.81;99995.78;1666912;85;20956;-63
2021/08/29 09:00:27;;;;;;;7.35;3.47;;;;;;;38.71;20.36;100016.50;1663322;85;20985;-63
2021/08/29 09:03:12;;;;;;;9.55;3.62;;;;;;;38.52;21.13;99991.66;1714716;80;21063;-64
2021/08/29 09:05:43;;;;;;;7.53;3.92;;;;;;;38.37;20.91;99996.23;1726009;80;21023;-64
2021/08/29 09:08:12;;;;;;;6.40;3.55;;;;;;;38.39;20.83;99985.75;1767751;80;21153;-65
2021/08/29 09:10:39;;;;;;;8.20;3.87;;;;;;;38.30;20.92;99986.64;1769757;80;20885;-67
2021/08/29 09:13:07;;;;;;;6.50;3.37;;;;;;;38.48;20.84;99990.86;1771087;80;21094;-65
2021/08/29 09:15:36;;;;;;;9.68;3.80;;;;;;;38.44;20.40;99997.64;1771418;79;39848;-65
2021/08/29 09:18:03;;;;;;;9.95;3.60;;;;;;;38.36;20.79;99985.14;1771798;79;21153;-64
2021/08/29 09:20:41;;;;;;;6.95;3.50;;;;;;;38.48;20.97;99986.00;1772006;80;21083;-67
2021/08/29 09:23:11;;;;;;;6.53;3.37;;;;;;;38.68;20.80;99978.56;1768534;80;21114;-64
2021/08/29 09:25:44;;;;;;;5.53;3.90;;;;;;;38.57;20.25;99981.80;1771817;80;21016;-65
2021/08/29 09:28:18;;;;;;;7.62;3.55;;;;;;;38.54;20.62;99979.05;1737383;80;21608;-63
2021/08/29 09:30:59;;;;;;;6.30;3.83;;;;;;;38.53;20.59;99987.00;1707392;80;22147;-65
2021/08/29 09:33:31;;;;;;;6.97;4.00;;;;;;;38.48;20.39;99984.05;1748763;80;21542;-67
2021/08/29 09:35:58;;;;;;;15.50;13.98;;;;;;;38.40;20.68;99991.39;1771044;80;20949;-67
2021/08/29 09:38:43;;;;;;;11.03;6.00;;;;;;;38.38;20.67;99982.06;1770997;79;21082;-68
2021/08/29 09:41:25;;;;;;;9.28;5.47;;;;;;;38.31;20.74;100006.48;1771391;80;20892;-67
2021/08/29 09:44:15;;;;;;;5.75;3.98;;;;;;;38.33;20.58;99981.78;1766225;80;22116;-69
2021/08/29 09:46:57;;;;;;;6.17;3.83;;;;;;;38.42;20.98;99994.53;1757962;79;21169;-64
2021/08/29 09:49:44;;;;;;;6.17;4.03;;;;;;;38.73;20.60;99988.31;1770810;80;20991;-63
2021/08/29 09:52:27;;;;;;;5.35;3.85;;;;;;;38.80;20.34;99976.13;1706603;80;20988;-64
2021/08/29 09:55:12;;;;;;;6.45;4.10;;;;;;;37.21;21.26;99977.73;1768496;80;20901;-64
2021/08/29 09:57:59;;;;;;;9.65;4.28;;;;;;;38.19;21.23;99973.52;1679523;83;21025;-65
2021/08/29 10:00:34;;;;;;;5.20;3.42;;;;;;;38.60;21.45;99974.20;1678580;83;21131;-66
2021/08/29 10:03:04;;;;;;;6.25;3.95;;;;;;;38.68;20.15;99993.55;1711558;80;21659;-64
2021/08/29 10:05:31;;;;;;;7.00;3.95;;;;;;;38.94;19.88;99960.41;1771291;79;20996;-64
2021/08/29 10:08:08;;;;;;;7.15;3.85;;;;;;;38.87;20.23;99953.00;1770326;80;22001;-65
2021/08/29 10:10:53;;;;;;;5.42;3.52;;;;;;;38.96;20.20;99958.68;1762978;80;21018;-66
2021/08/29 10:13:22;;;;;;;10.55;8.48;;;;;;;38.97;19.69;99947.97;1745379;80;21154;-66
2021/08/29 10:15:54;;;;;;;6.05;3.77;;;;;;;38.75;20.27;99947.83;1760174;80;21105;-67
2021/08/29 10:18:42;;;;;;;8.48;3.92;;;;;;;37.18;22.02;99954.00;1770877;79;21521;-66
2021/08/29 10:21:29;;;;;;;7.50;4.10;;;;;;;38.66;20.83;99948.18;1770779;80;21660;-68
2021/08/29 10:23:58;;;;;;;6.45;4.00;;;;;;;38.87;20.06;99958.45;1770055;80;21157;-67
2021/08/29 10:26:25;;;;;;;6.47;3.72;;;;;;;38.79;20.30;99939.12;1771990;80;21085;-68
2021/08/29 10:29:08;;;;;;;28.30;25.55;;;;;;;38.88;20.31;99946.38;1726885;80;21520;-68
2021/08/29 10:31:47;;;;;;;7.78;5.28;;;;;;;38.73;20.12;99946.08;1710537;80;21092;-65
2021/08/29 10:34:19;;;;;;;48.00;43.35;;;;;;;38.73;19.91;99940.63;1769594;80;21055;-65
2021/08/29 10:36:45;;;;;;;30.10;26.95;;;;;;;38.73;19.91;99940.63;1766086;80;20936;-66
2021/08/29 10:39:30;;;;;;;9.15;5.17;;;;;;;38.76;19.97;99939.87;1770673;79;21674;-64
2021/08/29 10:42:02;;;;;;;12.25;5.53;;;;;;;38.70;20.13;99938.67;1732419;80;20959;-65
2021/08/29 10:44:30;;;;;;;9.70;6.65;;;;;;;38.56;20.44;99951.62;1764474;80;21129;-66
2021/08/29 10:47:16;;;;;;;7.55;6.03;;;;;;;38.64;20.48;99939.63;1765573;80;20945;-64
2021/08/29 10:49:52;;;;;;;23.22;14.75;;;;;;;38.44;20.75;99939.68;1767761;80;21090;-68
2021/08/29 10:52:18;;;;;;;22.40;20.27;;;;;;;38.75;20.75;99927.39;1766382;80;21825;-66
2021/08/29 10:54:53;;;;;;;33.05;29.80;;;;;;;38.90;20.47;99924.19;1748439;80;21090;-65
2021/08/29 10:57:33;;;;;;;6.90;3.98;;;;;;;39.10;19.35;99928.17;1736457;81;21538;-66
2021/08/29 11:00:19;;;;;;;7.17;4.28;;;;;;;38.70;19.94;99931.27;1725115;82;21079;-67
2021/08/29 11:02:49;;;;;;;8.30;4.33;;;;;;;38.55;20.28;99918.73;1786941;79;21124;-66
2021/08/29 11:05:42;;;;;;;5.40;3.22;;;;;;;38.47;20.57;99938.16;1784038;78;21096;-67
2021/08/29 11:08:28;;;;;;;4.92;3.60;;;;;;;38.57;20.43;99933.36;1782685;80;21326;-67
2021/08/29 11:10:57;;;;;;;9.35;4.15;;;;;;;38.82;19.91;99919.29;1782006;80;20995;-66
2021/08/29 11:13:33;;;;;;;7.30;3.70;;;;;;;38.61;20.09;99920.54;1781503;80;21053;-70
2021/08/29 11:16:16;;;;;;;5.90;3.87;;;;;;;38.98;19.89;99928.50;1780103;80;21026;-66
2021/08/29 11:19:05;;;;;;;6.75;3.58;;;;;;;38.83;20.26;99922.79;1763239;80;21145;-69
2021/08/29 11:21:42;;;;;;;7.25;4.05;;;;;;;39.06;19.73;99931.47;1777735;79;20896;-67
2021/08/29 11:24:53;;;;;;;7.58;3.80;;;;;;;38.58;20.56;99919.93;1780755;80;21541;-64
2021/08/29 11:27:44;;;;;;;9.33;4.05;;;;;;;38.50;20.29;99919.11;1776893;80;21010;-64
2021/08/29 11:30:40;;;;;;;5.97;3.42;;;;;;;38.62;20.26;99914.70;1737258;80;21531;-64
2021/08/29 11:33:21;;;;;;;4.92;3.62;;;;;;;38.91;19.95;99906.69;1773816;79;21145;-64
2021/08/29 11:35:50;;;;;;;6.83;4.55;;;;;;;38.68;20.08;99916.46;1779868;78;21047;-64
2021/08/29 11:38:38;;;;;;;6.97;4.00;;;;;;;38.56;20.39;99886.25;1733331;82;20964;-65
2021/08/29 11:41:14;;;;;;;6.28;3.77;;;;;;;38.42;20.59;99898.45;1731845;82;21599;-66